Terminal Aerodrome Forecast
Issued by NWS

Home | Current Version | Previous Version | Text Only | Print | Product List | Glossary On
Versions: 1 2 3 4 5 6 7 8 9 10 11 12 13 14 15 16 17 18 19 20 21 22
000
FTUS43 KLSX 140500
TAFSUS
TAF
KSUS 140520Z 1406/1506 23013G25KT P6SM OVC035
      TEMPO 1406/1408 4SM -SHRA
     FM140800 28015G25KT P6SM OVC015
      TEMPO 1408/1410 5SM -RA
     FM141000 30016G26KT P6SM OVC008
     FM141800 33017G27KT P6SM OVC020
      TEMPO 1419/1423 5SM -RA
     FM150200 34014KT P6SM BKN035=

USA.gov is the U.S. government's official web portal to all federal, state and local government web resources and services.